Time;durP1;ratioP1;P1;durP2;ratioP2;P2;SDS_P1;SDS_P2;PMS_P1;PMS_P2;Temp;Humidity;BMP_temperature;BMP_pressure;BME280_temperature;BME280_humidity;BME280_pressure;Samples;Min_cycle;Max_cycle;Signal;HPM_P1;HPM_P2
2021/08/15 00:01:26;;;;;;;18.45;10.70;;;;;;;;;;5090747;28;20060;-72
2021/08/15 00:03:52;;;;;;;22.38;12.00;;;;;;;;;;5092595;28;20036;-71
2021/08/15 00:06:18;;;;;;;21.70;12.07;;;;;;;;;;5091200;28;20044;-72
2021/08/15 00:08:47;;;;;;;19.13;11.70;;;;;;;;;;5090798;28;20047;-72
2021/08/15 00:11:13;;;;;;;20.85;12.48;;;;;;;;;;5090693;28;20424;-72
2021/08/15 00:13:39;;;;;;;25.88;13.07;;;;;;;;;;5091449;28;20032;-72
2021/08/15 00:16:06;;;;;;;23.30;12.05;;;;;;;;;;5088392;28;20098;-72
2021/08/15 00:18:32;;;;;;;18.90;11.32;;;;;;;;;;5124338;27;20032;-72
2021/08/15 00:20:58;;;;;;;30.65;12.65;;;;;;;;;;5088379;28;20032;-71
2021/08/15 00:23:24;;;;;;;21.38;11.73;;;;;;;;;;5090644;28;20318;-72
2021/08/15 00:25:50;;;;;;;22.15;12.10;;;;;;;;;;5090700;28;20076;-72
2021/08/15 00:28:16;;;;;;;23.40;12.15;;;;;;;;;;5087098;28;20107;-72
2021/08/15 00:30:42;;;;;;;27.50;12.70;;;;;;;;;;5090561;28;20192;-72
2021/08/15 00:33:09;;;;;;;22.02;11.73;;;;;;;;;;5089276;28;20475;-72
2021/08/15 00:35:35;;;;;;;25.13;12.52;;;;;;;;;;5089542;28;20463;-72
2021/08/15 00:38:02;;;;;;;18.05;11.45;;;;;;;;;;5088687;28;20054;-71
2021/08/15 00:40:28;;;;;;;21.75;10.77;;;;;;;;;;5091695;28;20122;-72
2021/08/15 00:42:54;;;;;;;21.08;12.10;;;;;;;;;;5089427;28;20119;-72
2021/08/15 00:45:20;;;;;;;23.17;12.20;;;;;;;;;;5088836;28;20047;-72
2021/08/15 00:47:47;;;;;;;20.70;11.63;;;;;;;;;;5090012;28;20138;-72
2021/08/15 00:50:13;;;;;;;23.55;11.98;;;;;;;;;;5087874;28;20047;-72
2021/08/15 00:52:39;;;;;;;19.38;11.02;;;;;;;;;;5091122;28;20047;-72
2021/08/15 00:55:11;;;;;;;18.85;11.95;;;;;;;;;;5089696;28;20111;-72
2021/08/15 00:57:39;;;;;;;19.30;10.80;;;;;;;;;;5088435;28;20039;-71
2021/08/15 01:00:06;;;;;;;17.60;10.27;;;;;;;;;;5090785;28;20051;-72
2021/08/15 01:02:33;;;;;;;20.95;10.05;;;;;;;;;;5089880;28;20036;-72
2021/08/15 01:05:00;;;;;;;20.95;10.50;;;;;;;;;;5089942;28;20039;-71
2021/08/15 01:07:26;;;;;;;13.52;9.07;;;;;;;;;;5090801;28;20067;-72
2021/08/15 01:09:52;;;;;;;17.17;10.50;;;;;;;;;;5088369;28;20039;-71
2021/08/15 01:12:18;;;;;;;15.73;9.43;;;;;;;;;;5105858;27;20114;-72
2021/08/15 01:14:46;;;;;;;20.67;10.05;;;;;;;;;;5089425;28;20031;-72
2021/08/15 01:17:12;;;;;;;16.92;10.15;;;;;;;;;;5090904;28;20109;-71
2021/08/15 01:19:38;;;;;;;16.45;9.10;;;;;;;;;;5091580;28;20040;-72
2021/08/15 01:22:05;;;;;;;16.00;9.43;;;;;;;;;;5090563;28;20090;-71
2021/08/15 01:24:31;;;;;;;15.45;9.20;;;;;;;;;;5089141;28;20070;-71
2021/08/15 01:26:58;;;;;;;17.08;8.95;;;;;;;;;;5090540;28;20121;-71
2021/08/15 01:29:26;;;;;;;17.27;8.27;;;;;;;;;;5088356;28;20204;-71
2021/08/15 01:31:52;;;;;;;14.00;8.57;;;;;;;;;;5086172;28;20036;-71
2021/08/15 01:34:18;;;;;;;18.85;9.73;;;;;;;;;;5090123;28;20582;-71
2021/08/15 01:36:44;;;;;;;16.38;9.15;;;;;;;;;;5089136;28;20475;-71
2021/08/15 01:39:10;;;;;;;15.02;8.43;;;;;;;;;;5089402;28;20040;-71
2021/08/15 01:41:36;;;;;;;18.80;9.20;;;;;;;;;;5089281;28;20039;-71
2021/08/15 01:44:03;;;;;;;18.15;8.82;;;;;;;;;;5090980;28;20372;-71
2021/08/15 01:46:30;;;;;;;19.83;9.93;;;;;;;;;;5088440;28;20402;-71
2021/08/15 01:48:58;;;;;;;14.88;8.70;;;;;;;;;;5089630;28;20046;-71
2021/08/15 01:51:24;;;;;;;15.60;8.82;;;;;;;;;;5089021;28;20036;-71
2021/08/15 01:53:52;;;;;;;13.93;8.50;;;;;;;;;;5089023;28;20063;-71
2021/08/15 01:56:18;;;;;;;16.83;9.48;;;;;;;;;;5087790;28;20035;-71
2021/08/15 01:58:44;;;;;;;13.00;9.02;;;;;;;;;;5084526;28;20397;-72
2021/08/15 02:01:15;;;;;;;15.55;8.45;;;;;;;;;;5087614;28;20063;-71
2021/08/15 02:03:41;;;;;;;13.63;8.95;;;;;;;;;;5088445;28;20071;-71
2021/08/15 02:06:07;;;;;;;18.60;8.98;;;;;;;;;;5089203;28;20451;-71
2021/08/15 02:08:33;;;;;;;16.60;8.70;;;;;;;;;;5088784;28;20040;-71
2021/08/15 02:11:00;;;;;;;15.48;9.10;;;;;;;;;;5088713;28;20032;-71
2021/08/15 02:13:26;;;;;;;17.58;8.68;;;;;;;;;;5087515;28;20394;-72
2021/08/15 02:15:52;;;;;;;15.63;8.27;;;;;;;;;;5089343;28;20040;-73
2021/08/15 02:18:18;;;;;;;14.15;7.85;;;;;;;;;;5088769;28;20424;-72
2021/08/15 02:20:45;;;;;;;13.88;8.38;;;;;;;;;;5087902;28;20075;-71
2021/08/15 02:23:11;;;;;;;14.10;8.38;;;;;;;;;;5088526;28;20040;-71
2021/08/15 02:25:38;;;;;;;12.95;8.07;;;;;;;;;;5089728;28;20063;-71
2021/08/15 02:28:04;;;;;;;14.15;8.25;;;;;;;;;;5086526;28;20032;-71
2021/08/15 02:30:31;;;;;;;14.95;8.73;;;;;;;;;;5089240;28;20039;-71
2021/08/15 02:32:57;;;;;;;16.17;8.27;;;;;;;;;;5086576;28;20051;-72
2021/08/15 02:35:25;;;;;;;14.27;8.13;;;;;;;;;;5088653;28;20052;-71
2021/08/15 02:37:52;;;;;;;13.57;8.25;;;;;;;;;;5089809;28;20092;-71
2021/08/15 02:40:20;;;;;;;15.52;8.50;;;;;;;;;;5088495;28;20036;-71
2021/08/15 02:42:47;;;;;;;15.45;9.15;;;;;;;;;;5085374;28;20047;-72
2021/08/15 02:45:14;;;;;;;14.75;8.27;;;;;;;;;;5087981;28;20078;-71
2021/08/15 02:47:41;;;;;;;13.82;9.13;;;;;;;;;;5088719;28;20047;-72
2021/08/15 02:50:08;;;;;;;14.90;8.43;;;;;;;;;;5086703;28;20040;-71
2021/08/15 02:52:34;;;;;;;14.25;8.70;;;;;;;;;;5086769;28;20635;-71
2021/08/15 02:55:01;;;;;;;13.65;8.98;;;;;;;;;;5088039;28;20039;-71
2021/08/15 02:57:27;;;;;;;12.55;8.43;;;;;;;;;;5088636;28;20040;-71
2021/08/15 02:59:53;;;;;;;13.10;8.60;;;;;;;;;;5087705;28;20036;-72
2021/08/15 03:02:20;;;;;;;13.80;8.32;;;;;;;;;;5087242;28;20454;-71
2021/08/15 03:04:47;;;;;;;16.23;9.32;;;;;;;;;;5087814;28;20112;-71
2021/08/15 03:07:14;;;;;;;13.30;8.38;;;;;;;;;;5087427;28;20044;-71
2021/08/15 03:09:40;;;;;;;17.45;9.25;;;;;;;;;;5087621;28;20044;-71
2021/08/15 03:12:06;;;;;;;14.75;8.75;;;;;;;;;;5087274;28;20362;-71
2021/08/15 03:14:33;;;;;;;14.27;8.75;;;;;;;;;;5087008;28;20493;-71
2021/08/15 03:16:59;;;;;;;16.33;8.57;;;;;;;;;;5088251;28;20028;-71
2021/08/15 03:19:25;;;;;;;19.73;9.55;;;;;;;;;;5088331;28;20036;-71
2021/08/15 03:21:52;;;;;;;16.27;10.27;;;;;;;;;;5089083;28;20374;-71
2021/08/15 03:24:18;;;;;;;17.13;10.10;;;;;;;;;;5086322;28;20040;-71
2021/08/15 03:26:46;;;;;;;14.23;9.63;;;;;;;;;;5087416;28;20048;-71
2021/08/15 03:29:13;;;;;;;13.55;9.73;;;;;;;;;;5089387;28;20491;-71
2021/08/15 03:31:39;;;;;;;16.55;10.30;;;;;;;;;;5088801;28;20043;-71
2021/08/15 03:34:05;;;;;;;18.83;10.50;;;;;;;;;;5088867;28;20028;-72
2021/08/15 03:36:31;;;;;;;17.63;10.52;;;;;;;;;;5084888;28;20063;-71
2021/08/15 03:38:58;;;;;;;17.40;10.40;;;;;;;;;;5087114;28;20031;-71
2021/08/15 03:41:24;;;;;;;16.10;9.27;;;;;;;;;;5088757;28;20040;-71
2021/08/15 03:43:50;;;;;;;17.25;10.00;;;;;;;;;;5085332;28;20383;-71
2021/08/15 03:46:16;;;;;;;20.75;10.75;;;;;;;;;;5088743;28;20038;-71
2021/08/15 03:48:42;;;;;;;15.70;10.13;;;;;;;;;;5102519;28;20051;-71
2021/08/15 03:51:09;;;;;;;19.77;11.23;;;;;;;;;;5120028;27;20028;-71
2021/08/15 03:53:35;;;;;;;16.50;9.80;;;;;;;;;;5088246;28;20044;-71
2021/08/15 03:56:01;;;;;;;17.00;11.18;;;;;;;;;;5088862;28;20036;-71
2021/08/15 03:58:28;;;;;;;18.88;10.43;;;;;;;;;;5088469;28;20445;-71
2021/08/15 04:00:54;;;;;;;12.32;9.55;;;;;;;;;;5088978;28;20464;-71
2021/08/15 04:03:21;;;;;;;18.42;9.82;;;;;;;;;;5086787;28;20052;-71
2021/08/15 04:05:47;;;;;;;16.42;10.10;;;;;;;;;;5084767;28;20052;-71
2021/08/15 04:08:13;;;;;;;18.20;10.27;;;;;;;;;;5088687;28;20028;-71
2021/08/15 04:10:40;;;;;;;16.00;10.00;;;;;;;;;;5089548;28;20119;-71
2021/08/15 04:13:06;;;;;;;15.80;9.45;;;;;;;;;;5090543;28;20039;-71
2021/08/15 04:15:32;;;;;;;13.35;9.40;;;;;;;;;;5090249;28;20040;-71
2021/08/15 04:17:59;;;;;;;16.00;9.90;;;;;;;;;;5093087;28;20046;-71
2021/08/15 04:20:25;;;;;;;15.30;10.30;;;;;;;;;;5091118;28;20036;-71
2021/08/15 04:22:52;;;;;;;18.55;10.48;;;;;;;;;;5090426;28;20375;-71
2021/08/15 04:25:18;;;;;;;18.58;11.00;;;;;;;;;;5090881;28;20066;-71
2021/08/15 04:27:44;;;;;;;16.83;10.13;;;;;;;;;;5088929;28;20038;-71
2021/08/15 04:30:11;;;;;;;17.20;10.02;;;;;;;;;;5088325;28;20413;-71
2021/08/15 04:32:37;;;;;;;18.08;10.85;;;;;;;;;;5089677;28;20100;-71
2021/08/15 04:35:04;;;;;;;17.83;10.18;;;;;;;;;;5092027;28;20056;-71
2021/08/15 04:37:30;;;;;;;15.50;10.68;;;;;;;;;;5090022;28;20032;-71
2021/08/15 04:39:56;;;;;;;19.33;10.60;;;;;;;;;;5089890;28;20032;-72
2021/08/15 04:42:22;;;;;;;20.00;10.50;;;;;;;;;;5089116;28;20028;-72
2021/08/15 04:44:54;;;;;;;14.40;9.63;;;;;;;;;;5088701;28;20040;-72
2021/08/15 04:47:21;;;;;;;19.92;10.85;;;;;;;;;;5090424;28;20467;-71
2021/08/15 04:49:53;;;;;;;15.65;10.13;;;;;;;;;;5091171;28;20052;-71
2021/08/15 04:52:20;;;;;;;16.27;10.70;;;;;;;;;;5090115;28;20044;-71
2021/08/15 04:54:46;;;;;;;16.27;10.00;;;;;;;;;;5089412;28;20040;-72
2021/08/15 04:57:12;;;;;;;17.52;10.57;;;;;;;;;;5090602;28;20039;-72
2021/08/15 04:59:39;;;;;;;16.58;10.90;;;;;;;;;;5086283;28;20048;-72
2021/08/15 05:02:06;;;;;;;19.08;10.85;;;;;;;;;;5088076;28;20059;-71
2021/08/15 05:04:33;;;;;;;18.48;10.85;;;;;;;;;;5105556;28;20040;-72
2021/08/15 05:07:02;;;;;;;18.98;10.65;;;;;;;;;;5089022;28;20040;-73
2021/08/15 05:09:29;;;;;;;16.40;10.40;;;;;;;;;;5089843;28;20389;-72
2021/08/15 05:11:56;;;;;;;17.95;11.50;;;;;;;;;;5089824;28;20036;-72
2021/08/15 05:14:22;;;;;;;20.05;11.05;;;;;;;;;;5089137;28;20458;-71
2021/08/15 05:16:49;;;;;;;20.13;10.98;;;;;;;;;;5091058;28;20127;-72
2021/08/15 05:19:15;;;;;;;15.68;10.20;;;;;;;;;;5088117;28;20089;-72
2021/08/15 05:21:41;;;;;;;20.02;10.07;;;;;;;;;;5089857;28;20032;-71
2021/08/15 05:24:08;;;;;;;17.35;11.27;;;;;;;;;;5090755;28;20124;-71
2021/08/15 05:26:37;;;;;;;16.42;10.98;;;;;;;;;;5086146;28;20036;-73
2021/08/15 05:29:03;;;;;;;20.63;12.05;;;;;;;;;;5088216;28;20043;-71
2021/08/15 05:31:29;;;;;;;14.90;10.38;;;;;;;;;;5088085;28;20032;-71
2021/08/15 05:33:57;;;;;;;16.60;10.07;;;;;;;;;;5090109;28;20055;-72
2021/08/15 05:36:24;;;;;;;16.75;10.02;;;;;;;;;;5088491;28;20048;-71
2021/08/15 05:38:50;;;;;;;14.65;10.02;;;;;;;;;;5089804;28;20047;-71
2021/08/15 05:41:16;;;;;;;14.27;8.95;;;;;;;;;;5090302;28;20055;-72
2021/08/15 05:43:42;;;;;;;13.82;9.15;;;;;;;;;;5090370;28;20324;-71
2021/08/15 05:46:08;;;;;;;11.90;8.93;;;;;;;;;;5087421;28;20044;-72
2021/08/15 05:48:35;;;;;;;17.83;8.98;;;;;;;;;;5087659;28;20536;-72
2021/08/15 05:51:03;;;;;;;11.80;8.55;;;;;;;;;;5087910;28;20055;-72
2021/08/15 05:53:30;;;;;;;12.23;8.15;;;;;;;;;;5084856;28;20491;-71
2021/08/15 05:55:56;;;;;;;14.70;8.63;;;;;;;;;;5090356;28;20083;-71
2021/08/15 05:58:22;;;;;;;12.35;7.72;;;;;;;;;;5089396;28;20757;-71
2021/08/15 06:00:49;;;;;;;12.02;7.65;;;;;;;;;;5089206;28;20032;-72
2021/08/15 06:03:15;;;;;;;12.38;7.47;;;;;;;;;;5088109;28;20040;-71
2021/08/15 06:05:41;;;;;;;10.68;7.60;;;;;;;;;;5089474;28;20463;-71
2021/08/15 06:08:07;;;;;;;13.38;7.38;;;;;;;;;;5087427;28;20048;-72
2021/08/15 06:10:34;;;;;;;13.63;7.18;;;;;;;;;;5089220;28;20032;-71
2021/08/15 06:13:00;;;;;;;10.13;7.43;;;;;;;;;;5089851;28;20042;-72
2021/08/15 06:15:26;;;;;;;12.00;7.45;;;;;;;;;;5087956;28;20063;-71
2021/08/15 06:17:52;;;;;;;11.88;7.35;;;;;;;;;;5089065;28;20089;-72
2021/08/15 06:20:18;;;;;;;10.88;6.90;;;;;;;;;;5087263;28;20046;-72
2021/08/15 06:22:45;;;;;;;12.07;7.57;;;;;;;;;;5087083;28;20050;-72
2021/08/15 06:25:12;;;;;;;12.57;7.43;;;;;;;;;;5089581;28;20494;-72
2021/08/15 06:27:48;;;;;;;11.25;7.07;;;;;;;;;;5088991;28;20115;-71
2021/08/15 06:30:15;;;;;;;11.38;7.25;;;;;;;;;;5088617;28;20422;-72
2021/08/15 06:32:52;;;;;;;10.75;6.32;;;;;;;;;;5084365;28;20048;-72
2021/08/15 06:35:19;;;;;;;11.90;7.50;;;;;;;;;;5087760;28;20438;-72
2021/08/15 06:37:45;;;;;;;8.60;6.30;;;;;;;;;;5094095;28;20300;-72
2021/08/15 06:40:12;;;;;;;11.02;6.28;;;;;;;;;;5097478;28;20481;-72
2021/08/15 06:42:38;;;;;;;9.95;6.38;;;;;;;;;;5088150;28;20467;-72
2021/08/15 06:45:04;;;;;;;11.38;6.50;;;;;;;;;;5087497;28;20754;-72
2021/08/15 06:47:30;;;;;;;;;;;;;;;;;;5088580;28;20032;-73
2021/08/15 06:49:56;;;;;;;;;;;;;;;;;;5088159;28;19969;-73
2021/08/15 06:52:22;;;;;;;;;;;;;;;;;;5088717;28;19916;-72
2021/08/15 06:54:49;;;;;;;;;;;;;;;;;;5089023;28;19928;-72
2021/08/15 06:57:15;;;;;;;;;;;;;;;;;;5089539;28;19916;-72
2021/08/15 06:59:41;;;;;;;;;;;;;;;;;;5089180;28;19955;-72
2021/08/15 07:02:07;;;;;;;;;;;;;;;;;;5088768;28;19916;-72
2021/08/15 07:04:33;;;;;;;;;;;;;;;;;;5088432;28;19934;-72
2021/08/15 07:06:59;;;;;;;;;;;;;;;;;;5086021;28;19927;-72
2021/08/15 07:09:25;;;;;;;;;;;;;;;;;;5086251;28;19917;-72
2021/08/15 07:11:51;;;;;;;;;;;;;;;;;;5087543;28;19939;-72
2021/08/15 07:14:17;;;;;;;;;;;;;;;;;;5086970;28;20271;-73
2021/08/15 07:16:43;;;;;;;;;;;;;;;;;;5087940;28;19928;-73
2021/08/15 07:19:09;;;;;;;;;;;;;;;;;;5087418;28;19927;-72
2021/08/15 07:21:35;;;;;;;;;;;;;;;;;;5087097;28;20010;-72
2021/08/15 07:24:01;;;;;;;;;;;;;;;;;;5089742;28;19995;-73
2021/08/15 07:26:28;;;;;;;;;;;;;;;;;;5089089;28;19916;-72
2021/08/15 07:28:55;;;;;;;;;;;;;;;;;;5089077;28;19920;-72
2021/08/15 07:31:21;;;;;;;;;;;;;;;;;;5088739;28;19970;-72
2021/08/15 07:33:47;;;;;;;;;;;;;;;;;;5087209;28;20275;-73
2021/08/15 07:36:13;;;;;;;;;;;;;;;;;;5086762;28;19920;-72
2021/08/15 07:38:39;;;;;;;;;;;;;;;;;;5085750;28;19916;-72
2021/08/15 07:41:05;;;;;;;;;;;;;;;;;;5089745;28;20002;-73
2021/08/15 07:43:31;;;;;;;;;;;;;;;;;;5087730;28;19973;-73
2021/08/15 07:45:57;;;;;;;;;;;;;;;;;;5090822;28;20371;-72
2021/08/15 07:48:23;;;;;;;;;;;;;;;;;;5092452;28;19999;-73
2021/08/15 07:50:49;;;;;;;;;;;;;;;;;;5090303;28;19924;-73
2021/08/15 07:53:15;;;;;;;;;;;;;;;;;;5092963;28;19931;-73
2021/08/15 07:55:43;;;;;;;;;;;;;;;;;;5091451;28;19930;-73
2021/08/15 07:58:09;;;;;;;;;;;;;;;;;;5093303;28;19995;-73
2021/08/15 08:00:35;;;;;;;;;;;;;;;;;;5090904;28;20403;-72
2021/08/15 08:03:01;;;;;;;;;;;;;;;;;;5091064;28;19923;-73
2021/08/15 08:05:27;;;;;;;;;;;;;;;;;;5092630;28;19923;-74
2021/08/15 08:07:53;;;;;;;;;;;;;;;;;;5089881;28;20031;-72
2021/08/15 08:10:19;;;;;;;;;;;;;;;;;;5098306;28;20371;-73
2021/08/15 08:12:45;;;;;;;;;;;;;;;;;;5080614;28;19916;-73
2021/08/15 08:15:11;;;;;;;;;;;;;;;;;;5089479;28;19920;-74
2021/08/15 08:17:37;;;;;;;;;;;;;;;;;;5092565;28;19985;-73
2021/08/15 08:20:03;;;;;;;;;;;;;;;;;;5084935;28;19916;-74
2021/08/15 08:22:29;;;;;;;;;;;;;;;;;;5088357;28;20256;-74
2021/08/15 08:24:56;;;;;;;;;;;;;;;;;;5111074;27;20022;-74
2021/08/15 08:27:22;;;;;;;;;;;;;;;;;;5092862;28;19916;-73
2021/08/15 08:29:48;;;;;;;;;;;;;;;;;;5091774;28;20373;-73
2021/08/15 08:32:14;;;;;;;;;;;;;;;;;;5093339;28;19916;-74
2021/08/15 08:34:40;;;;;;;;;;;;;;;;;;5089970;28;19916;-73
2021/08/15 08:37:06;;;;;;;;;;;;;;;;;;5095239;28;19915;-73
2021/08/15 08:39:32;;;;;;;;;;;;;;;;;;5093293;28;19969;-74
2021/08/15 08:41:58;;;;;;;;;;;;;;;;;;5090995;28;19928;-73
2021/08/15 08:44:25;;;;;;;;;;;;;;;;;;5090255;28;19923;-73
2021/08/15 08:46:51;;;;;;;;;;;;;;;;;;5089557;28;19994;-74
2021/08/15 08:49:17;;;;;;;10.30;5.80;;;;;;;;;;5089081;28;19923;-73
2021/08/15 08:51:46;;;;;;;8.60;5.30;;;;;;;;;;5088271;28;20040;-76
2021/08/15 08:54:13;;;;;;;12.73;6.30;;;;;;;;;;5088269;28;20048;-75
2021/08/15 08:56:39;;;;;;;10.55;5.85;;;;;;;;;;5090150;28;20454;-73
2021/08/15 08:59:06;;;;;;;11.77;6.15;;;;;;;;;;5090090;28;20037;-78
2021/08/15 09:01:32;;;;;;;10.15;6.60;;;;;;;;;;5084918;28;20040;-74
2021/08/15 09:03:58;;;;;;;8.98;5.43;;;;;;;;;;5080020;28;20277;-74
2021/08/15 09:06:28;;;;;;;9.55;5.88;;;;;;;;;;5081130;28;20036;-75
2021/08/15 09:08:54;;;;;;;9.88;5.50;;;;;;;;;;5085099;28;20047;-74
2021/08/15 09:11:25;;;;;;;10.02;5.85;;;;;;;;;;5087057;28;20050;-74
2021/08/15 09:14:04;;;;;;;10.95;5.93;;;;;;;;;;5106019;27;20047;-74
2021/08/15 09:16:49;;;;;;;9.88;6.13;;;;;;;;;;5089141;28;20047;-74
2021/08/15 09:19:25;;;;;;;9.45;6.07;;;;;;;;;;5089851;28;20040;-74
2021/08/15 09:21:51;;;;;;;9.02;5.82;;;;;;;;;;5082155;28;20440;-74
2021/08/15 09:24:18;;;;;;;11.48;6.35;;;;;;;;;;5086749;28;20790;-75
2021/08/15 09:26:57;;;;;;;11.75;6.30;;;;;;;;;;5098841;28;20044;-74
2021/08/15 09:29:24;;;;;;;10.35;5.45;;;;;;;;;;5083669;28;20055;-73
2021/08/15 09:31:50;;;;;;;11.82;6.10;;;;;;;;;;5088092;28;20372;-74
2021/08/15 09:34:27;;;;;;;13.90;5.80;;;;;;;;;;5090258;28;20048;-74
2021/08/15 09:36:53;;;;;;;10.38;5.80;;;;;;;;;;5086484;28;20055;-74
2021/08/15 09:39:33;;;;;;;10.50;6.10;;;;;;;;;;5090709;28;20081;-73
2021/08/15 09:41:59;;;;;;;13.55;6.00;;;;;;;;;;5089226;28;20051;-73
2021/08/15 09:44:29;;;;;;;12.07;5.70;;;;;;;;;;5087753;28;20042;-73
2021/08/15 09:46:56;;;;;;;13.75;6.15;;;;;;;;;;5086681;28;20050;-73
2021/08/15 09:49:22;;;;;;;13.00;6.13;;;;;;;;;;5088072;28;20044;-74
2021/08/15 09:51:49;;;;;;;13.25;5.93;;;;;;;;;;5095064;28;20070;-74
2021/08/15 09:54:17;;;;;;;11.57;6.63;;;;;;;;;;5088946;28;20036;-73
2021/08/15 09:56:44;;;;;;;11.52;6.72;;;;;;;;;;5084423;28;20041;-74
2021/08/15 09:59:13;;;;;;;12.30;6.60;;;;;;;;;;5075960;28;20471;-73
2021/08/15 10:01:40;;;;;;;12.90;6.43;;;;;;;;;;5088194;28;20478;-73
2021/08/15 10:04:06;;;;;;;11.80;6.40;;;;;;;;;;5096036;28;20712;-73
2021/08/15 10:06:32;;;;;;;13.75;6.40;;;;;;;;;;5090773;28;20067;-73
2021/08/15 10:09:01;;;;;;;14.40;6.43;;;;;;;;;;5120004;27;20040;-73
2021/08/15 10:11:27;;;;;;;12.85;6.22;;;;;;;;;;5089248;28;20047;-73
2021/08/15 10:13:53;;;;;;;12.52;5.68;;;;;;;;;;5090225;28;20123;-73
2021/08/15 10:16:19;;;;;;;11.35;5.68;;;;;;;;;;5086006;28;20036;-72
2021/08/15 10:18:51;;;;;;;13.13;6.75;;;;;;;;;;5080911;28;20502;-73
2021/08/15 10:21:20;;;;;;;14.23;5.82;;;;;;;;;;5102754;28;20032;-73
2021/08/15 10:23:47;;;;;;;12.13;5.50;;;;;;;;;;5100392;28;20064;-73
2021/08/15 10:26:32;;;;;;;11.60;5.82;;;;;;;;;;5120756;27;20039;-73
2021/08/15 10:28:58;;;;;;;14.13;5.85;;;;;;;;;;5085826;28;20118;-73
2021/08/15 10:31:44;;;;;;;8.75;5.63;;;;;;;;;;5088236;28;20036;-74
2021/08/15 10:34:10;;;;;;;11.18;5.78;;;;;;;;;;5087638;28;20042;-73
2021/08/15 10:36:39;;;;;;;15.05;5.82;;;;;;;;;;5087950;28;20060;-73
2021/08/15 10:39:25;;;;;;;9.85;5.32;;;;;;;;;;5088206;28;20048;-73
2021/08/15 10:41:52;;;;;;;12.70;5.28;;;;;;;;;;5104228;28;20059;-73
2021/08/15 10:44:19;;;;;;;11.98;5.57;;;;;;;;;;5089970;28;20513;-73
2021/08/15 10:47:09;;;;;;;13.63;6.07;;;;;;;;;;5090220;28;20439;-73
2021/08/15 10:49:49;;;;;;;17.73;6.00;;;;;;;;;;5087920;28;20423;-73
2021/08/15 10:52:27;;;;;;;11.00;5.10;;;;;;;;;;5086038;28;20032;-76
2021/08/15 10:54:55;;;;;;;11.40;5.22;;;;;;;;;;5084978;28;20040;-73
2021/08/15 10:57:39;;;;;;;13.20;5.20;;;;;;;;;;5086342;28;20043;-74
2021/08/15 11:00:38;;;;;;;7.95;4.60;;;;;;;;;;5072119;28;20044;-74
2021/08/15 11:03:18;;;;;;;11.95;4.65;;;;;;;;;;5048751;28;20183;-79
2021/08/15 11:05:44;;;;;;;13.57;5.60;;;;;;;;;;5095904;28;20032;-79
2021/08/15 11:08:29;;;;;;;11.30;4.75;;;;;;;;;;5094863;28;20040;-77
2021/08/15 11:11:07;;;;;;;11.32;4.65;;;;;;;;;;5071296;28;20049;-78
2021/08/15 11:13:34;;;;;;;8.63;4.78;;;;;;;;;;5079249;28;20087;-79
2021/08/15 11:16:19;;;;;;;11.20;5.07;;;;;;;;;;5090374;28;20044;-83
2021/08/15 11:19:04;;;;;;;13.35;4.78;;;;;;;;;;5090601;28;20449;-77
2021/08/15 11:21:48;;;;;;;10.23;5.20;;;;;;;;;;5085383;28;20055;-76
2021/08/15 11:24:15;;;;;;;7.38;4.75;;;;;;;;;;5094348;28;20059;-78
2021/08/15 11:26:45;;;;;;;11.20;5.63;;;;;;;;;;5085449;28;20119;-75
2021/08/15 11:29:12;;;;;;;12.45;5.75;;;;;;;;;;5083109;28;20035;-73
2021/08/15 11:31:38;;;;;;;16.42;5.25;;;;;;;;;;5088810;28;20055;-73
2021/08/15 11:34:08;;;;;;;14.77;5.60;;;;;;;;;;5091162;28;20043;-73
2021/08/15 11:36:35;;;;;;;12.82;5.93;;;;;;;;;;5091261;28;20049;-73
2021/08/15 11:39:04;;;;;;;11.55;5.38;;;;;;;;;;5099604;27;20048;-73
2021/08/15 11:41:30;;;;;;;12.32;4.95;;;;;;;;;;5075361;28;20036;-73
2021/08/15 11:43:56;;;;;;;12.23;5.63;;;;;;;;;;5086785;28;20036;-72
2021/08/15 11:46:22;;;;;;;11.35;5.07;;;;;;;;;;5087913;28;20459;-74
2021/08/15 11:48:49;;;;;;;12.93;5.47;;;;;;;;;;5091355;28;20039;-72
2021/08/15 11:51:15;;;;;;;11.50;5.10;;;;;;;;;;5123646;27;20054;-73
2021/08/15 11:53:44;;;;;;;10.80;4.47;;;;;;;;;;5087951;28;20056;-72
2021/08/15 11:56:14;;;;;;;13.25;5.03;;;;;;;;;;5091053;28;20085;-73
2021/08/15 11:58:44;;;;;;;11.02;4.93;;;;;;;;;;5093233;28;20059;-73
2021/08/15 12:01:10;;;;;;;12.57;5.50;;;;;;;;;;5088883;28;20111;-73
2021/08/15 12:03:37;;;;;;;11.50;5.28;;;;;;;;;;5090809;28;20085;-73
2021/08/15 12:06:04;;;;;;;12.50;5.68;;;;;;;;;;5089873;28;20101;-74
2021/08/15 12:08:40;;;;;;;11.68;4.80;;;;;;;;;;5090379;28;20549;-76
2021/08/15 12:11:22;;;;;;;10.57;5.13;;;;;;;;;;5084631;28;20513;-79
2021/08/15 12:13:48;;;;;;;11.90;4.95;;;;;;;;;;5090042;28;20411;-75
2021/08/15 12:16:15;;;;;;;9.85;4.82;;;;;;;;;;5082978;28;20109;-74
2021/08/15 12:19:00;;;;;;;12.90;5.18;;;;;;;;;;5088798;28;20050;-75
2021/08/15 12:21:31;;;;;;;12.60;5.22;;;;;;;;;;5077482;28;20546;-73
2021/08/15 12:23:57;;;;;;;12.25;5.30;;;;;;;;;;5091259;28;20040;-74
2021/08/15 12:26:26;;;;;;;9.35;4.70;;;;;;;;;;5090670;28;20051;-74
2021/08/15 12:28:57;;;;;;;11.85;5.03;;;;;;;;;;5092919;28;20045;-83
2021/08/15 12:31:25;;;;;;;12.82;5.22;;;;;;;;;;5092283;28;20052;-76
2021/08/15 12:34:02;;;;;;;12.23;5.78;;;;;;;;;;5087640;28;20036;-75
2021/08/15 12:36:30;;;;;;;8.30;4.90;;;;;;;;;;5091903;28;20051;-74
2021/08/15 12:39:06;;;;;;;8.45;4.50;;;;;;;;;;5089278;28;20056;-75
2021/08/15 12:41:45;;;;;;;11.10;5.57;;;;;;;;;;5097296;28;20043;-72
2021/08/15 12:44:13;;;;;;;15.57;5.75;;;;;;;;;;5095708;28;20044;-73
2021/08/15 12:46:40;;;;;;;10.90;4.80;;;;;;;;;;5082846;28;20047;-74
2021/08/15 12:49:21;;;;;;;13.48;5.88;;;;;;;;;;5087884;28;20071;-74
2021/08/15 12:51:47;;;;;;;10.73;6.07;;;;;;;;;;5090726;28;20047;-77
2021/08/15 12:54:14;;;;;;;11.07;5.75;;;;;;;;;;5088638;28;20044;-77
2021/08/15 12:56:40;;;;;;;14.95;5.55;;;;;;;;;;5085777;28;20036;-75
2021/08/15 12:59:07;;;;;;;11.20;5.22;;;;;;;;;;5087959;28;20044;-76
2021/08/15 13:01:33;;;;;;;11.57;4.95;;;;;;;;;;5084658;28;20471;-75
2021/08/15 13:03:59;;;;;;;11.90;5.00;;;;;;;;;;5117457;27;20110;-75
2021/08/15 13:06:26;;;;;;;12.05;5.80;;;;;;;;;;5108022;27;20385;-74
2021/08/15 13:08:53;;;;;;;11.48;5.28;;;;;;;;;;5093007;28;20060;-74
2021/08/15 13:11:19;;;;;;;14.18;5.43;;;;;;;;;;5082673;28;20040;-74
2021/08/15 13:13:45;;;;;;;11.77;5.70;;;;;;;;;;5085826;28;20044;-74
2021/08/15 13:16:11;;;;;;;13.43;5.45;;;;;;;;;;5082386;28;20047;-74
2021/08/15 13:18:38;;;;;;;14.27;5.72;;;;;;;;;;5083047;28;20052;-73
2021/08/15 13:21:04;;;;;;;8.77;5.68;;;;;;;;;;5086068;28;20040;-74
2021/08/15 13:23:31;;;;;;;11.70;6.05;;;;;;;;;;5084186;28;20054;-74
2021/08/15 13:25:58;;;;;;;12.25;5.53;;;;;;;;;;5085377;28;20044;-74
2021/08/15 13:28:24;;;;;;;11.80;5.53;;;;;;;;;;5112197;27;20659;-75
2021/08/15 13:30:50;;;;;;;11.77;5.68;;;;;;;;;;5085166;28;20064;-75
2021/08/15 13:33:16;;;;;;;9.63;5.13;;;;;;;;;;5087478;28;20052;-75
2021/08/15 13:35:42;;;;;;;10.20;5.70;;;;;;;;;;5088831;28;20181;-73
2021/08/15 13:38:09;;;;;;;10.00;5.43;;;;;;;;;;5090186;28;20558;-73
2021/08/15 13:40:35;;;;;;;11.48;5.47;;;;;;;;;;5084843;28;20062;-74
2021/08/15 13:43:02;;;;;;;13.02;5.70;;;;;;;;;;5089767;28;20052;-74
2021/08/15 13:45:28;;;;;;;12.27;5.72;;;;;;;;;;5087087;28;20133;-74
2021/08/15 13:47:54;;;;;;;10.43;4.95;;;;;;;;;;5116390;27;20495;-74
2021/08/15 13:50:21;;;;;;;10.15;5.45;;;;;;;;;;5080858;28;21726;-74
2021/08/15 13:52:47;;;;;;;11.68;5.30;;;;;;;;;;5081987;28;20044;-74
2021/08/15 13:55:14;;;;;;;10.48;5.50;;;;;;;;;;5084440;28;20040;-74
2021/08/15 13:57:46;;;;;;;11.32;5.10;;;;;;;;;;5099843;28;20050;-74
2021/08/15 14:00:14;;;;;;;9.00;4.70;;;;;;;;;;5084313;28;20466;-74
2021/08/15 14:02:40;;;;;;;10.07;4.43;;;;;;;;;;5083284;28;20036;-73
2021/08/15 14:05:07;;;;;;;12.43;4.43;;;;;;;;;;5086775;28;20083;-73
2021/08/15 14:07:33;;;;;;;8.15;4.43;;;;;;;;;;5080434;28;20047;-73
2021/08/15 14:10:04;;;;;;;6.47;3.58;;;;;;;;;;5087267;28;20115;-74
2021/08/15 14:12:30;;;;;;;7.45;3.45;;;;;;;;;;5089795;28;20044;-74
2021/08/15 14:14:58;;;;;;;5.90;3.08;;;;;;;;;;5087156;28;20032;-74
2021/08/15 14:17:24;;;;;;;7.60;3.60;;;;;;;;;;5110407;27;20403;-75
2021/08/15 14:19:50;;;;;;;8.27;3.50;;;;;;;;;;5088156;28;20048;-74
2021/08/15 14:22:16;;;;;;;5.80;2.80;;;;;;;;;;5082684;28;20097;-72
2021/08/15 14:24:42;;;;;;;7.70;3.05;;;;;;;;;;5083809;28;20055;-73
2021/08/15 14:27:09;;;;;;;4.93;3.08;;;;;;;;;;5087904;28;20066;-73
2021/08/15 14:29:35;;;;;;;4.38;2.40;;;;;;;;;;5089783;28;20036;-72
2021/08/15 14:32:01;;;;;;;6.47;2.42;;;;;;;;;;5083025;28;20052;-72
2021/08/15 14:34:27;;;;;;;;;;;;;;;;;;5079552;28;20421;-72
2021/08/15 14:36:53;;;;;;;;;;;;;;;;;;5083797;28;20374;-72
2021/08/15 14:39:19;;;;;;;;;;;;;;;;;;5080859;28;20362;-73
2021/08/15 14:41:45;;;;;;;;;;;;;;;;;;5089924;28;19930;-73
2021/08/15 14:44:11;;;;;;;;;;;;;;;;;;5085309;28;19942;-73
2021/08/15 14:46:37;;;;;;;;;;;;;;;;;;5087663;28;19926;-74
2021/08/15 14:49:03;;;;;;;;;;;;;;;;;;5087109;28;19924;-76
2021/08/15 14:51:32;;;;;;;4.95;1.88;;;;;;;;;;5100797;27;20354;-74